Time;durP1;ratioP1;P1;durP2;ratioP2;P2;SDS_P1;SDS_P2;PMS_P1;PMS_P2;Temp;Humidity;BMP_temperature;BMP_pressure;BME280_temperature;BME280_humidity;BME280_pressure;Samples;Min_cycle;Max_cycle;Signal;HPM_P1;HPM_P2
2022/08/27 00:02:19;;;;;;;472.27;118.22;;;19.20;99.90;;;18.42;100.00;97144.78;4953104;29;20421;-72
2022/08/27 00:04:45;;;;;;;468.50;120.18;;;19.10;99.90;;;18.44;100.00;97148.75;4952721;29;20406;-72
2022/08/27 00:07:14;;;;;;;472.48;117.65;;;19.10;99.90;;;18.41;100.00;97148.56;4952994;29;20409;-72
2022/08/27 00:09:40;;;;;;;496.57;122.20;;;19.10;99.90;;;18.44;100.00;97140.69;4952967;29;20847;-72
2022/08/27 00:12:08;;;;;;;476.05;121.55;;;19.10;99.90;;;18.49;100.00;97145.16;4952888;29;20421;-72
2022/08/27 00:14:35;;;;;;;469.85;115.32;;;19.20;99.90;;;18.45;100.00;97144.97;4952455;28;20411;-72
2022/08/27 00:17:02;;;;;;;448.50;115.20;;;19.10;99.90;;;18.37;100.00;97140.34;4952824;29;20884;-72
2022/08/27 00:19:28;;;;;;;446.52;115.75;;;19.00;99.90;;;18.36;100.00;97146.78;4951683;29;21015;-72
2022/08/27 00:21:54;;;;;;;446.75;115.32;;;19.00;99.90;;;18.31;100.00;97138.91;4952754;29;20421;-72
2022/08/27 00:24:20;;;;;;;450.60;112.25;;;19.00;99.90;;;18.27;100.00;97137.91;4952427;28;20465;-72
2022/08/27 00:26:46;;;;;;;425.00;110.03;;;19.00;99.90;;;18.30;100.00;97145.34;4952692;29;20437;-72
2022/08/27 00:29:13;;;;;;;440.35;110.05;;;19.00;99.90;;;18.34;100.00;97149.00;4952757;29;20418;-72
2022/08/27 00:31:39;;;;;;;449.70;109.03;;;19.00;99.90;;;18.39;100.00;97145.41;4952759;29;20432;-71
2022/08/27 00:34:05;;;;;;;417.83;110.27;;;19.10;99.90;;;18.36;100.00;97140.66;4952241;29;20421;-72
2022/08/27 00:36:31;;;;;;;438.80;108.97;;;19.00;99.90;;;18.36;100.00;97146.00;4952776;29;20413;-72
2022/08/27 00:38:59;;;;;;;382.90;99.90;;;19.00;99.90;;;18.33;100.00;97144.75;4952114;29;21301;-72
2022/08/27 00:41:25;;;;;;;380.53;99.37;;;19.00;99.90;;;18.35;100.00;97142.53;4952285;28;20824;-72
2022/08/27 00:43:56;;;;;;;368.23;98.93;;;19.00;99.90;;;18.42;100.00;97147.44;4952283;29;20420;-72
2022/08/27 00:46:31;;;;;;;447.77;109.13;;;19.10;99.90;;;18.41;100.00;97148.56;4951323;29;20442;-72
2022/08/27 00:49:04;;;;;;;408.42;100.82;;;19.10;99.90;;;18.46;100.00;97137.72;4952377;29;20398;-72
2022/08/27 00:51:30;;;;;;;393.20;98.90;;;19.20;99.90;;;18.46;100.00;97143.06;4952337;29;20413;-72
2022/08/27 00:53:57;;;;;;;341.05;93.90;;;19.10;99.90;;;18.55;100.00;97135.88;4952064;29;20417;-72
2022/08/27 00:56:28;;;;;;;464.80;109.68;;;19.20;99.90;;;18.57;100.00;97143.66;4952413;29;20417;-72
2022/08/27 00:58:55;;;;;;;439.57;106.77;;;19.30;99.90;;;18.57;100.00;97133.69;4952446;28;20498;-72
2022/08/27 01:01:28;;;;;;;397.77;98.32;;;19.30;99.90;;;18.49;100.00;97139.78;4952253;28;20784;-72
2022/08/27 01:03:59;;;;;;;477.37;114.00;;;19.20;99.90;;;18.47;100.00;97129.38;4954765;28;20439;-72
2022/08/27 01:06:32;;;;;;;446.00;104.40;;;19.20;99.90;;;18.42;100.00;97140.22;4955162;29;20425;-72
2022/08/27 01:09:03;;;;;;;446.50;104.55;;;19.10;99.90;;;18.41;100.00;97141.31;4956280;29;20410;-72
2022/08/27 01:11:30;;;;;;;443.85;105.07;;;19.10;99.90;;;18.41;100.00;97138.66;4956222;29;20449;-72
2022/08/27 01:13:56;;;;;;;433.55;102.15;;;19.10;99.90;;;18.43;100.00;97135.63;4955759;29;20416;-72
2022/08/27 01:16:28;;;;;;;426.65;101.75;;;19.10;99.90;;;18.44;100.00;97131.88;4956292;29;20460;-72
2022/08/27 01:18:57;;;;;;;430.90;100.72;;;19.10;99.90;;;18.47;100.00;97128.59;4956215;29;20892;-72
2022/08/27 01:21:31;;;;;;;446.20;104.32;;;19.20;99.90;;;18.48;100.00;97133.63;4955939;29;20799;-72
2022/08/27 01:24:04;;;;;;;382.00;91.25;;;19.20;99.90;;;18.51;100.00;97129.53;4955657;29;20484;-72
2022/08/27 01:26:32;;;;;;;455.95;103.03;;;19.20;99.90;;;18.50;100.00;97126.06;4955905;29;20406;-71
2022/08/27 01:28:59;;;;;;;412.98;100.70;;;19.20;99.90;;;18.43;100.00;97130.28;4955946;29;20412;-72
2022/08/27 01:31:25;;;;;;;377.80;97.05;;;19.10;99.90;;;18.32;100.00;97118.25;4955889;29;20481;-72
2022/08/27 01:33:56;;;;;;;420.70;101.28;;;19.00;99.90;;;18.20;100.00;97121.47;4955427;29;20409;-72
2022/08/27 01:36:22;;;;;;;437.40;104.15;;;18.90;99.90;;;18.15;100.00;97121.63;4955891;29;20481;-72
2022/08/27 01:38:48;;;;;;;430.08;102.97;;;18.80;99.90;;;18.06;100.00;97116.19;4955822;29;20412;-71
2022/08/27 01:41:14;;;;;;;456.92;102.80;;;18.80;99.90;;;18.10;100.00;97124.44;4977036;23;20514;-75
2022/08/27 01:43:42;;;;;;;461.17;102.72;;;18.80;99.90;;;18.17;100.00;97122.91;4974035;28;20487;-75
2022/08/27 01:46:08;;;;;;;442.30;102.78;;;18.90;99.90;;;18.23;100.00;97122.75;4975061;28;20415;-75
2022/08/27 01:48:34;;;;;;;444.00;103.63;;;18.90;99.90;;;18.26;100.00;97127.53;4975065;28;20467;-75
2022/08/27 01:51:00;;;;;;;446.70;103.60;;;19.00;99.90;;;18.29;100.00;97127.69;4981833;28;20419;-75
2022/08/27 01:53:26;;;;;;;462.30;104.40;;;19.00;99.90;;;18.33;100.00;97123.31;4993805;28;20411;-75
2022/08/27 01:55:53;;;;;;;457.17;107.38;;;19.00;99.90;;;18.34;100.00;97132.94;4994170;28;20442;-75
2022/08/27 01:58:23;;;;;;;452.87;103.57;;;19.10;99.90;;;18.34;100.00;97132.94;4994461;28;20573;-75
2022/08/27 02:00:55;;;;;;;469.48;104.65;;;19.10;99.90;;;18.35;100.00;97131.03;4994030;28;20422;-75
2022/08/27 02:03:21;;;;;;;471.53;108.63;;;19.10;99.90;;;18.38;100.00;97130.41;4993673;28;20413;-75
2022/08/27 02:05:47;;;;;;;492.40;118.60;;;19.10;99.90;;;18.41;100.00;97135.19;4993913;28;20473;-75
2022/08/27 02:08:16;;;;;;;485.00;111.17;;;19.10;99.90;;;18.34;100.00;97129.47;4976337;28;20914;-75
2022/08/27 02:10:44;;;;;;;428.10;99.78;;;19.00;99.90;;;18.34;100.00;97135.63;4993755;28;20414;-75
2022/08/27 02:13:12;;;;;;;415.85;97.20;;;19.10;99.90;;;18.38;100.00;97127.75;4993501;28;20413;-75
2022/08/27 02:15:39;;;;;;;464.52;108.60;;;19.10;99.90;;;18.43;100.00;97125.72;4992654;28;20398;-75
2022/08/27 02:18:09;;;;;;;392.17;96.68;;;19.20;99.90;;;18.46;100.00;97121.63;4993742;28;20414;-75
2022/08/27 02:20:36;;;;;;;515.92;115.57;;;19.20;99.90;;;18.47;100.00;97123.22;4993496;28;20419;-75
2022/08/27 02:23:03;;;;;;;495.88;114.32;;;19.20;99.90;;;18.48;100.00;97124.81;4993260;28;20438;-75
2022/08/27 02:25:29;;;;;;;504.83;116.38;;;19.20;99.90;;;18.45;100.00;97123.53;4993536;28;20438;-75
2022/08/27 02:27:58;;;;;;;468.43;113.73;;;19.20;99.90;;;18.36;100.00;97125.34;4993615;28;20442;-75
2022/08/27 02:30:27;;;;;;;454.65;108.70;;;19.00;99.90;;;18.26;100.00;97128.31;4993692;28;20481;-74
2022/08/27 02:32:53;;;;;;;431.65;105.88;;;18.90;99.90;;;18.12;100.00;97131.03;4993159;28;20407;-74
2022/08/27 02:35:23;;;;;;;440.27;106.97;;;18.80;99.90;;;18.12;100.00;97122.22;4993514;28;20737;-74
2022/08/27 02:37:49;;;;;;;439.47;104.40;;;18.80;99.90;;;18.08;100.00;97115.91;4993430;28;20414;-74
2022/08/27 02:40:18;;;;;;;397.88;98.13;;;18.80;99.90;;;18.05;100.00;97121.84;4993053;28;20410;-75
2022/08/27 02:42:45;;;;;;;413.95;103.35;;;18.80;99.90;;;18.00;100.00;97121.97;4992868;28;20415;-74
2022/08/27 02:45:12;;;;;;;430.25;106.07;;;18.70;99.90;;;18.01;100.00;97127.03;4993206;28;20407;-74
2022/08/27 02:47:39;;;;;;;434.30;103.82;;;18.70;99.90;;;17.94;100.00;97129.34;4993318;28;21069;-74
2022/08/27 02:50:07;;;;;;;422.55;103.55;;;18.60;99.90;;;17.90;100.00;97128.38;4993247;28;20438;-74
2022/08/27 02:52:35;;;;;;;387.85;97.72;;;18.60;99.90;;;17.92;100.00;97138.78;4992910;28;20421;-74
2022/08/27 02:55:01;;;;;;;420.10;102.75;;;18.60;99.90;;;17.90;100.00;97127.56;4992938;28;20417;-74
2022/08/27 02:57:27;;;;;;;373.02;95.60;;;18.60;99.90;;;17.86;100.00;97129.28;4993161;28;20414;-74
2022/08/27 02:59:53;;;;;;;394.48;99.60;;;18.60;99.90;;;17.91;100.00;97135.31;4993177;28;20411;-74
2022/08/27 03:02:20;;;;;;;397.67;100.45;;;18.60;99.90;;;17.86;100.00;97127.41;4993035;28;20422;-74
2022/08/27 03:04:46;;;;;;;401.33;98.73;;;18.60;99.90;;;17.87;100.00;97128.19;4975251;28;20415;-74
2022/08/27 03:07:12;;;;;;;402.17;99.85;;;18.60;99.90;;;17.80;100.00;97120.59;4992857;28;20504;-74
2022/08/27 03:09:40;;;;;;;371.13;93.57;;;18.50;99.90;;;17.80;100.00;97123.28;4992870;28;20501;-74
2022/08/27 03:12:07;;;;;;;379.75;92.40;;;18.50;99.90;;;17.82;100.00;97114.94;4992707;28;20407;-74
2022/08/27 03:14:33;;;;;;;371.23;90.50;;;18.50;99.90;;;17.83;100.00;97119.97;4992268;28;20766;-74
2022/08/27 03:18:16;;;;;;;305.20;81.13;;;18.50;99.90;;;17.88;100.00;97122.53;4992594;28;20411;-74
2022/08/27 03:19:46;;;;;;;311.98;80.57;;;18.60;99.90;;;17.87;100.00;97123.63;4992494;28;20411;-74
2022/08/27 03:22:12;;;;;;;249.15;69.63;;;18.60;99.90;;;17.81;100.00;97130.22;4992352;28;20784;-74
2022/08/27 03:24:40;;;;;;;242.02;69.07;;;18.50;99.90;;;17.85;100.00;97122.34;4992124;28;20410;-74
2022/08/27 03:27:05;;;;;;;286.55;74.72;;;18.60;99.90;;;17.81;100.00;97126.75;4992258;28;20441;-74
2022/08/27 03:29:33;;;;;;;271.55;71.57;;;18.50;99.90;;;17.82;100.00;97122.97;4992572;28;20410;-74
2022/08/27 03:31:59;;;;;;;273.15;70.32;;;18.60;99.90;;;17.84;100.00;97121.56;4992249;28;20435;-74
2022/08/27 03:34:26;;;;;;;278.40;73.30;;;18.60;99.90;;;17.87;100.00;97120.97;4991944;28;20410;-74
2022/08/27 03:36:52;;;;;;;307.65;75.50;;;18.60;99.90;;;17.86;100.00;97118.59;4992201;28;20857;-74
2022/08/27 03:39:18;;;;;;;285.13;71.80;;;18.60;99.90;;;17.85;100.00;97120.47;4992262;28;20476;-74
2022/08/27 03:41:46;;;;;;;288.98;74.68;;;18.60;99.90;;;17.86;100.00;97126.63;4991857;28;20423;-74
2022/08/27 03:44:12;;;;;;;244.10;68.03;;;18.60;99.90;;;17.84;100.00;97121.56;4991716;28;20783;-74
2022/08/27 03:46:38;;;;;;;309.48;78.05;;;18.60;99.90;;;17.88;100.00;97122.53;4992058;28;20410;-74
2022/08/27 03:49:04;;;;;;;313.97;80.33;;;18.60;99.90;;;17.87;100.00;97123.63;4992041;28;20415;-74
2022/08/27 03:51:30;;;;;;;274.80;73.33;;;18.60;99.90;;;17.81;100.00;97121.38;4991921;28;20402;-74
2022/08/27 03:53:56;;;;;;;317.23;80.72;;;18.60;99.90;;;17.82;100.00;97122.97;4991462;28;20402;-74
2022/08/27 03:56:22;;;;;;;330.02;82.82;;;18.60;99.90;;;17.78;100.00;97123.56;4991977;28;20920;-74
2022/08/27 03:58:49;;;;;;;302.33;77.77;;;18.50;99.90;;;17.71;100.00;97117.06;4991935;28;20528;-74
2022/08/27 04:01:16;;;;;;;272.30;72.43;;;18.50;99.90;;;17.72;100.00;97121.31;4991653;28;20780;-74
2022/08/27 04:03:42;;;;;;;299.40;76.45;;;18.50;99.90;;;17.77;100.00;97123.88;4991429;28;20418;-74
2022/08/27 04:06:08;;;;;;;297.40;78.53;;;18.50;99.90;;;17.79;100.00;97113.66;4991776;28;20464;-74
2022/08/27 04:08:34;;;;;;;289.17;75.10;;;18.60;99.90;;;17.81;100.00;97113.34;4991835;28;20410;-74
2022/08/27 04:11:05;;;;;;;319.17;82.18;;;18.60;99.90;;;17.81;100.00;97106.13;4991635;28;20398;-74
2022/08/27 04:13:31;;;;;;;302.70;81.20;;;18.60;99.90;;;17.77;100.00;97113.94;4991177;28;20402;-74
2022/08/27 04:15:58;;;;;;;285.15;76.30;;;18.50;99.90;;;17.72;100.00;97110.59;4991563;28;20914;-74
2022/08/27 04:18:24;;;;;;;337.67;89.05;;;18.50;99.90;;;17.75;100.00;97116.13;4991558;28;20406;-74
2022/08/27 04:20:53;;;;;;;352.00;93.20;;;18.50;99.90;;;17.77;100.00;97111.28;4991338;28;20957;-74
2022/08/27 04:23:20;;;;;;;379.40;102.93;;;18.50;99.90;;;17.79;100.00;97116.31;4991115;28;20441;-74
2022/08/27 04:25:46;;;;;;;470.15;117.60;;;18.50;99.90;;;17.81;100.00;97124.84;4991486;28;20497;-74
2022/08/27 04:28:14;;;;;;;448.63;115.13;;;18.60;99.90;;;17.76;100.00;97122.28;4991561;28;20402;-74
2022/08/27 04:30:40;;;;;;;426.80;109.30;;;18.50;99.90;;;17.76;100.00;97124.97;4991296;28;20416;-74
2022/08/27 04:33:08;;;;;;;469.67;118.38;;;18.50;99.90;;;17.78;100.00;97126.25;4991208;28;20489;-74
2022/08/27 04:35:34;;;;;;;457.80;117.97;;;18.50;99.90;;;17.77;100.00;97131.91;4991315;28;20849;-74
2022/08/27 04:38:00;;;;;;;485.50;126.88;;;18.50;99.90;;;17.73;100.00;97130.94;4990675;28;20429;-74
2022/08/27 04:41:18;;;;;;;502.40;129.07;;;18.50;99.90;;;17.76;100.00;97128.44;4973779;28;20925;-74
2022/08/27 04:43:13;;;;;;;470.98;122.90;;;18.50;99.90;;;17.77;100.00;97126.53;4990537;28;20418;-74
2022/08/27 04:45:43;;;;;;;520.58;131.10;;;18.50;99.90;;;17.82;100.00;97131.00;4991221;28;20437;-74
2022/08/27 04:48:11;;;;;;;495.95;126.25;;;18.60;99.90;;;17.78;100.00;97128.94;4991198;28;20407;-74
2022/08/27 04:50:40;;;;;;;446.48;119.70;;;18.50;99.90;;;17.69;100.00;97128.06;4991144;28;20417;-74
2022/08/27 04:53:07;;;;;;;474.10;121.03;;;18.40;99.90;;;17.72;100.00;97124.78;4990704;28;20745;-74
2022/08/27 04:55:33;;;;;;;400.45;113.32;;;18.50;99.90;;;17.81;100.00;97130.22;4991110;28;20410;-74
2022/08/27 04:57:59;;;;;;;447.90;116.82;;;18.50;99.90;;;17.79;100.00;97125.16;4991093;28;20752;-74
2022/08/27 05:00:25;;;;;;;420.65;115.22;;;18.50;99.90;;;17.83;100.00;97132.56;4990873;28;20410;-73
2022/08/27 05:02:50;;;;;;;444.77;115.35;;;18.60;99.90;;;17.77;100.00;97130.00;4990525;28;20402;-73
2022/08/27 05:05:18;;;;;;;441.02;114.03;;;18.50;99.90;;;17.73;100.00;97128.25;4990888;28;20402;-73
2022/08/27 05:07:44;;;;;;;423.50;116.07;;;18.50;99.90;;;17.71;100.00;97130.44;4990863;28;20505;-73
2022/08/27 05:10:10;;;;;;;394.60;111.78;;;18.40;99.90;;;17.67;100.00;97129.44;4990804;28;20457;-73
2022/08/27 05:12:36;;;;;;;430.17;113.25;;;18.40;99.90;;;17.68;100.00;97133.72;4990866;28;20930;-73
2022/08/27 05:15:03;;;;;;;448.13;114.95;;;18.40;99.90;;;17.70;100.00;97132.31;4990580;28;20406;-73
2022/08/27 05:17:31;;;;;;;390.50;106.32;;;18.40;99.90;;;17.78;100.00;97126.25;4990828;28;20903;-74
2022/08/27 05:19:58;;;;;;;398.65;105.65;;;18.50;99.90;;;17.84;100.00;97129.59;4990921;28;20410;-74
2022/08/27 05:22:26;;;;;;;416.38;109.53;;;18.60;99.90;;;17.82;100.00;97126.41;4990585;28;20924;-73
2022/08/27 05:24:52;;;;;;;402.20;108.22;;;18.60;99.90;;;17.86;100.00;97132.75;4990605;28;20414;-73
2022/08/27 05:27:18;;;;;;;410.77;105.35;;;18.60;99.90;;;17.86;100.00;97126.63;4990891;28;20406;-73
2022/08/27 05:29:44;;;;;;;414.33;107.00;;;18.60;99.90;;;17.87;100.00;97125.53;4990873;28;20530;-73
2022/08/27 05:32:10;;;;;;;398.67;104.70;;;18.60;99.90;;;17.87;100.00;97128.19;4990842;28;20460;-73
2022/08/27 05:34:36;;;;;;;419.53;110.47;;;18.60;99.90;;;17.92;100.00;97128.88;4972924;28;20971;-73
2022/08/27 05:37:02;;;;;;;418.20;108.90;;;18.60;99.90;;;17.96;100.00;97129.06;4990742;28;20414;-73
2022/08/27 05:39:29;;;;;;;387.92;105.70;;;18.70;99.90;;;17.90;100.00;97125.69;4973404;28;20423;-73
2022/08/27 05:41:56;;;;;;;374.75;102.88;;;18.60;99.90;;;17.89;100.00;97120.66;4990438;28;20422;-75
2022/08/27 05:44:22;;;;;;;362.57;100.33;;;18.60;99.90;;;17.85;100.00;97128.50;4990444;28;20861;-74
2022/08/27 05:46:48;;;;;;;305.20;91.60;;;18.60;99.90;;;17.91;100.00;97126.47;4990688;28;20420;-74
2022/08/27 05:49:15;;;;;;;352.50;98.03;;;18.60;99.90;;;17.95;100.00;97125.59;4991857;28;20406;-75
2022/08/27 05:51:41;;;;;;;389.17;101.88;;;18.70;99.90;;;18.01;100.00;97120.91;4994091;28;20441;-74
2022/08/27 05:54:13;;;;;;;350.60;95.63;;;18.70;99.90;;;18.04;100.00;97126.41;4993763;28;20414;-76
2022/08/27 05:56:42;;;;;;;344.88;97.97;;;18.80;99.90;;;18.06;100.00;97124.22;4994192;28;20900;-78
2022/08/27 06:01:54;;;;;;;331.65;95.68;;;18.80;99.90;;;18.15;100.00;97125.09;4994126;28;20429;-75
2022/08/27 06:04:22;;;;;;;370.23;101.15;;;18.80;99.90;;;18.19;100.00;97131.41;4993162;28;20465;-76
2022/08/27 06:06:50;;;;;;;362.25;102.32;;;18.90;99.90;;;18.21;100.00;97131.09;4993874;28;20869;-75
2022/08/27 06:09:18;;;;;;;365.30;99.93;;;18.90;99.90;;;18.23;100.00;97136.16;4993537;28;20414;-75
2022/08/27 06:11:46;;;;;;;342.60;95.78;;;18.90;99.90;;;18.25;100.00;97142.81;4993827;28;20489;-74
2022/08/27 06:14:13;;;;;;;318.67;91.90;;;19.00;99.90;;;18.25;100.00;97140.13;4993415;28;20435;-75
2022/08/27 06:16:40;;;;;;;319.40;95.63;;;18.90;99.90;;;18.24;100.00;97143.09;4993848;28;20842;-75
2022/08/27 06:19:08;;;;;;;309.25;93.10;;;18.90;99.90;;;18.24;100.00;97145.78;4993724;28;20457;-75
2022/08/27 06:21:34;;;;;;;309.33;93.43;;;18.90;99.90;;;18.25;100.00;97142.81;4993765;28;20430;-75
2022/08/27 06:24:01;;;;;;;304.13;93.30;;;19.00;99.90;;;18.33;100.00;97143.97;4993197;28;20402;-76
2022/08/27 06:26:27;;;;;;;316.90;96.72;;;19.00;99.90;;;18.30;100.00;97141.88;4993655;28;20406;-75
2022/08/27 06:28:55;;;;;;;319.20;97.32;;;19.00;99.90;;;18.35;100.00;97150.56;4993749;28;20434;-75
2022/08/27 06:31:25;;;;;;;232.50;85.13;;;19.00;99.90;;;18.19;100.00;97144.78;4993530;28;20399;-75
2022/08/27 06:33:53;;;;;;;282.63;88.55;;;18.90;99.90;;;18.26;100.00;97146.28;4992907;28;20426;-75
2022/08/27 06:36:23;;;;;;;250.63;81.45;;;18.90;99.90;;;18.34;100.00;97143.66;4993426;28;20832;-75
2022/08/27 06:38:49;;;;;;;310.58;91.13;;;19.00;99.90;;;18.36;100.00;97140.66;4993280;28;20407;-76
2022/08/27 06:41:19;;;;;;;311.88;94.28;;;19.10;99.90;;;18.38;100.00;97149.19;4993247;28;20422;-75
2022/08/27 06:43:46;;;;;;;311.13;90.85;;;19.10;99.90;;;18.40;100.00;97144.31;4992953;28;20823;-75
2022/08/27 06:46:17;;;;;;;272.25;87.97;;;19.10;99.90;;;18.42;100.00;97150.94;4993446;28;20431;-75
2022/08/27 06:48:44;;;;;;;301.88;92.20;;;19.10;99.90;;;18.41;100.00;97145.91;4993183;28;20434;-77
2022/08/27 06:51:14;;;;;;;250.65;80.55;;;19.10;99.90;;;18.46;100.00;97153.81;4993069;28;20938;-76
2022/08/27 06:53:41;;;;;;;271.05;87.45;;;19.10;99.90;;;18.45;100.00;97149.53;4992723;28;20951;-75
2022/08/27 06:56:09;;;;;;;257.15;83.80;;;19.10;99.90;;;18.46;100.00;97146.56;4993269;28;20469;-76
2022/08/27 06:58:35;;;;;;;268.15;87.40;;;19.10;99.90;;;18.52;100.00;97145.31;4993924;28;20410;-75
2022/08/27 07:01:09;;;;;;;235.85;78.45;;;19.20;99.90;;;18.50;100.00;97149.41;4992096;28;20426;-75
2022/08/27 07:03:37;;;;;;;221.30;78.72;;;19.20;99.90;;;18.40;100.00;97153.16;4991396;28;20857;-75
2022/08/27 07:06:04;;;;;;;240.82;80.35;;;19.10;99.90;;;18.43;100.00;97144.47;4986656;28;20772;-75
2022/08/27 07:08:31;;;;;;;237.18;79.45;;;19.10;99.90;;;18.48;100.00;97154.28;5004485;28;21052;-75
2022/08/27 07:10:57;;;;;;;222.30;75.87;;;19.10;99.90;;;18.54;100.00;97158.41;5002291;28;20403;-75
2022/08/27 07:13:23;;;;;;;278.45;87.15;;;19.20;99.90;;;18.60;100.00;97149.16;4992498;28;20484;-74
2022/08/27 07:15:49;;;;;;;206.68;75.70;;;19.30;99.90;;;18.59;100.00;97144.09;4988044;28;20795;-75
2022/08/27 07:18:15;;;;;;;190.57;74.13;;;19.30;99.90;;;18.55;100.00;97149.28;4996359;28;20501;-75
2022/08/27 07:20:42;;;;;;;229.77;75.28;;;19.20;99.90;;;18.69;100.00;97149.22;4997727;28;20431;-75
2022/08/27 07:23:08;;;;;;;231.43;75.32;;;19.40;99.90;;;18.75;100.00;97153.34;4989110;28;20422;-75
2022/08/27 07:25:34;;;;;;;227.02;72.95;;;19.50;99.90;;;18.83;100.00;97157.94;4990775;28;20499;-72
2022/08/27 07:28:00;;;;;;;212.10;75.00;;;19.50;99.90;;;18.83;100.00;97150.69;4986661;28;20453;-79
2022/08/27 07:30:27;;;;;;;198.70;74.13;;;19.50;99.90;;;18.77;100.00;97159.97;4995911;28;20405;-74
2022/08/27 07:32:53;;;;;;;187.82;68.70;;;19.40;99.90;;;18.77;100.00;97159.19;5000795;28;20822;-71
2022/08/27 07:35:19;;;;;;;206.47;74.60;;;19.40;99.90;;;18.79;100.00;97165.03;5000690;28;20461;-72
2022/08/27 07:37:47;;;;;;;214.70;78.63;;;19.40;99.90;;;18.78;100.00;97166.94;5006768;28;20413;-72
2022/08/27 07:40:14;;;;;;;207.85;71.60;;;19.50;99.90;;;18.83;100.00;97171.34;4995249;28;20406;-74
2022/08/27 07:45:26;;;;;;;197.45;71.03;;;19.50;99.90;;;18.85;100.00;97169.97;4969933;28;20543;-79
2022/08/27 07:47:52;;;;;;;213.27;75.05;;;19.50;99.90;;;18.85;100.00;97179.91;4961757;28;20423;-76
2022/08/27 07:50:20;;;;;;;210.13;74.35;;;19.50;99.90;;;18.84;100.00;97178.31;4988554;28;20408;-78
2022/08/27 07:52:48;;;;;;;208.77;74.93;;;19.50;99.90;;;18.85;100.00;97178.00;4978563;28;20417;-78
2022/08/27 07:55:14;;;;;;;199.55;70.90;;;19.50;99.90;;;18.87;100.00;97180.34;4991837;28;20406;-79
2022/08/27 07:57:41;;;;;;;195.48;71.65;;;19.50;99.90;;;18.90;100.00;97183.22;4992041;28;20971;-79
2022/08/27 08:00:09;;;;;;;202.05;71.65;;;19.50;99.90;;;18.90;100.00;97183.22;4983492;28;20877;-79
2022/08/27 08:02:36;;;;;;;196.93;72.38;;;19.60;99.90;;;18.85;100.00;97180.69;4991628;28;20939;-78
2022/08/27 08:05:03;;;;;;;204.25;71.15;;;19.50;99.90;;;18.86;100.00;97182.28;4975581;28;20423;-79
2022/08/27 08:07:29;;;;;;;201.50;70.93;;;19.50;99.90;;;18.90;100.00;97185.13;4972730;28;20412;-79
2022/08/27 08:09:57;;;;;;;211.85;73.50;;;19.60;99.90;;;18.92;100.00;97181.03;4970930;28;20423;-79
2022/08/27 08:12:23;;;;;;;207.05;71.43;;;19.60;99.90;;;18.96;100.00;97186.56;4964290;28;20453;-78
2022/08/27 08:14:49;;;;;;;205.73;72.97;;;19.60;99.90;;;18.93;100.00;97184.50;4952332;28;20459;-78
2022/08/27 08:17:15;;;;;;;196.88;70.30;;;19.60;99.90;;;18.95;100.00;97188.44;4974734;28;20404;-78
2022/08/27 08:19:41;;;;;;;193.43;69.55;;;19.60;99.90;;;18.94;100.00;97196.81;4975028;28;20423;-78
2022/08/27 08:22:07;;;;;;;236.85;80.22;;;19.60;99.90;;;18.99;100.00;97191.31;4975487;28;20918;-78
2022/08/27 08:24:35;;;;;;;200.55;72.95;;;19.70;99.90;;;18.89;100.00;97192.38;4989488;28;20398;-78
2022/08/27 08:27:02;;;;;;;192.95;71.93;;;19.50;99.90;;;18.85;100.00;97185.25;4980520;28;20598;-78
2022/08/27 08:29:28;;;;;;;202.38;73.97;;;19.50;99.90;;;18.86;100.00;97197.56;4991109;28;20418;-78
2022/08/27 08:31:54;;;;;;;207.07;76.45;;;19.50;99.90;;;18.82;100.00;97196.59;4991004;28;20760;-78
2022/08/27 08:34:20;;;;;;;199.57;74.38;;;19.50;99.90;;;18.85;100.00;97199.47;4982007;28;20423;-78
2022/08/27 08:36:47;;;;;;;225.85;76.15;;;19.50;99.90;;;18.88;100.00;97204.19;4973955;28;20486;-78
2022/08/27 08:39:13;;;;;;;219.90;76.90;;;19.60;99.90;;;18.87;100.00;97201.81;4979387;28;20895;-77
2022/08/27 08:41:43;;;;;;;193.27;73.03;;;19.50;99.90;;;18.89;100.00;97202.31;4984435;28;20418;-77
2022/08/27 08:44:18;;;;;;;223.70;76.75;;;19.50;99.90;;;18.85;100.00;97201.34;4990238;28;20419;-77
2022/08/27 08:46:52;;;;;;;212.40;78.40;;;19.50;99.90;;;18.79;100.00;97202.59;4990820;28;20486;-77
2022/08/27 08:49:34;;;;;;;222.23;76.72;;;19.40;99.90;;;18.76;100.00;97206.66;4972308;28;20416;-77
2022/08/27 08:52:15;;;;;;;258.95;85.82;;;19.40;99.90;;;18.77;100.00;97210.94;4974090;28;20400;-78
2022/08/27 08:54:43;;;;;;;236.50;77.15;;;19.50;99.90;;;18.77;100.00;97210.94;4965434;28;20402;-78
2022/08/27 08:57:25;;;;;;;222.00;77.70;;;19.50;99.90;;;18.77;100.00;97210.13;4969765;28;20552;-77
2022/08/27 09:00:01;;;;;;;230.15;77.60;;;19.40;99.90;;;18.79;100.00;97219.47;4968376;28;20413;-76
2022/08/27 09:02:27;;;;;;;233.75;77.68;;;19.50;99.90;;;18.83;100.00;97220.44;4971065;28;20420;-75
2022/08/27 09:05:04;;;;;;;227.53;77.53;;;19.50;99.90;;;18.88;100.00;97216.81;4971792;28;20456;-78
2022/08/27 09:07:37;;;;;;;269.17;84.30;;;19.60;99.90;;;18.89;100.00;97218.41;4967974;28;20477;-75
2022/08/27 09:10:13;;;;;;;224.20;77.28;;;19.60;99.90;;;18.87;100.00;97218.69;4972226;28;20456;-75
2022/08/27 09:12:40;;;;;;;196.80;71.43;;;19.50;99.90;;;18.91;100.00;97216.22;4971777;28;20434;-75
2022/08/27 09:15:14;;;;;;;221.32;75.80;;;19.60;99.90;;;18.93;100.00;97224.75;4978364;28;20410;-75
2022/08/27 09:17:43;;;;;;;208.90;73.30;;;19.60;99.90;;;18.96;100.00;97216.06;4978106;28;20509;-75
2022/08/27 09:20:11;;;;;;;217.43;74.80;;;19.60;99.90;;;18.94;100.00;97221.72;4973055;28;20412;-78
2022/08/27 09:22:50;;;;;;;198.00;69.32;;;19.60;99.90;;;18.97;100.00;97216.84;4970657;28;20455;-78
2022/08/27 09:25:23;;;;;;;198.13;69.03;;;19.60;99.90;;;18.98;100.00;97218.44;4968652;28;20407;-78
2022/08/27 09:27:53;;;;;;;189.70;69.30;;;19.60;99.90;;;19.00;100.00;97216.25;4970024;28;20404;-79
2022/08/27 09:30:24;;;;;;;162.45;66.45;;;19.60;99.90;;;18.95;100.00;97217.94;4983434;28;20422;-79
2022/08/27 09:32:57;;;;;;;179.77;65.20;;;19.60;99.90;;;19.00;100.00;97217.03;4981491;28;20407;-79
2022/08/27 09:35:26;;;;;;;169.70;62.95;;;19.60;99.90;;;19.02;100.00;97222.09;4991889;28;20402;-79
2022/08/27 09:37:55;;;;;;;159.65;60.67;;;19.70;99.90;;;19.05;100.00;97221.47;4994291;28;20461;-82
2022/08/27 09:40:30;;;;;;;151.13;57.35;;;19.70;99.90;;;19.16;100.00;97226.28;4993809;28;20406;-82
2022/08/27 09:43:05;;;;;;;158.50;58.65;;;19.80;99.90;;;19.27;100.00;97224.88;4984570;28;20816;-82
2022/08/27 09:45:34;;;;;;;118.83;48.80;;;19.90;99.90;;;19.39;100.00;97220.81;4984482;28;20432;-81
2022/08/27 09:48:06;;;;;;;97.93;43.00;;;20.00;99.90;;;19.42;100.00;97217.50;4983014;28;20404;-79
2022/08/27 09:50:38;;;;;;;95.60;40.85;;;20.00;99.90;;;19.37;100.00;97218.44;4975684;28;20814;-78
2022/08/27 09:53:19;;;;;;;81.25;36.08;;;20.00;99.90;;;19.36;100.00;97218.75;4984661;28;20403;-85
2022/08/27 09:55:51;;;;;;;70.07;31.23;;;20.00;99.90;;;19.32;100.00;97223.97;4994027;28;20406;-87
2022/08/27 09:58:22;;;;;;;75.55;34.88;;;19.90;99.90;;;19.23;100.00;97218.56;4993873;28;20501;-86
2022/08/27 10:01:00;;;;;;;69.13;34.95;;;19.90;99.90;;;19.27;100.00;97224.06;4993209;28;20406;-87